createdAt,value
2018-05-16T00:00:04.126Z,7.27
2018-05-16T00:02:32.046Z,7.50
2018-05-16T00:04:59.939Z,7.60
2018-05-16T00:07:27.834Z,8.13
2018-05-16T00:09:55.716Z,7.60
2018-05-16T00:12:23.615Z,7.70
2018-05-16T00:14:51.505Z,8.40
2018-05-16T00:17:19.401Z,8.40
2018-05-16T00:19:47.314Z,7.63
2018-05-16T00:22:15.206Z,8.07
2018-05-16T00:24:43.102Z,7.47
2018-05-16T00:27:11.001Z,7.50
2018-05-16T00:29:38.914Z,7.10
2018-05-16T00:32:06.839Z,8.00
2018-05-16T00:34:34.937Z,8.50
2018-05-16T00:37:02.847Z,7.40
2018-05-16T00:39:30.738Z,7.93
2018-05-16T00:41:58.633Z,7.77
2018-05-16T00:44:26.518Z,7.17
2018-05-16T00:46:54.404Z,7.13
2018-05-16T00:49:22.306Z,7.00
2018-05-16T00:51:50.211Z,7.07
2018-05-16T00:54:18.108Z,7.60
2018-05-16T00:56:46.009Z,7.03
2018-05-16T00:59:13.893Z,7.37
2018-05-16T01:01:41.781Z,7.53
2018-05-16T01:04:09.679Z,7.17
2018-05-16T01:06:37.617Z,8.07
2018-05-16T01:09:05.530Z,8.33
2018-05-16T01:11:33.422Z,8.67
2018-05-16T01:14:01.319Z,8.27
2018-05-16T01:16:29.216Z,9.03
2018-05-16T01:18:57.109Z,8.60
2018-05-16T01:21:25.001Z,8.40
2018-05-16T01:23:52.906Z,7.10
2018-05-16T01:26:20.814Z,9.00
2018-05-16T01:28:48.715Z,9.40
2018-05-16T01:31:16.618Z,8.13
2018-05-16T01:33:44.509Z,8.23
2018-05-16T01:36:12.638Z,8.90
2018-05-16T01:38:40.555Z,8.17
2018-05-16T01:41:08.473Z,8.13
2018-05-16T01:43:36.358Z,8.20
2018-05-16T01:46:04.256Z,8.60
2018-05-16T01:48:32.146Z,8.63
2018-05-16T01:51:00.042Z,8.60
2018-05-16T01:53:27.939Z,8.50
2018-05-16T01:55:55.834Z,9.07
2018-05-16T01:58:23.731Z,8.47
2018-05-16T02:00:51.641Z,8.20
2018-05-16T02:03:19.552Z,9.53
2018-05-16T02:05:47.433Z,8.03
2018-05-16T02:08:15.317Z,9.40
2018-05-16T02:10:43.229Z,8.77
2018-05-16T02:13:11.206Z,9.30
2018-05-16T02:15:39.137Z,9.30
2018-05-16T02:18:07.050Z,10.43
2018-05-16T02:20:34.945Z,8.13
2018-05-16T02:23:02.830Z,9.30
2018-05-16T02:25:30.716Z,10.10
2018-05-16T02:27:58.598Z,9.73
2018-05-16T02:30:26.498Z,8.83
2018-05-16T02:32:54.401Z,9.70
2018-05-16T02:35:22.299Z,9.77
2018-05-16T02:37:50.370Z,10.13
2018-05-16T02:40:18.294Z,9.93
2018-05-16T02:42:46.180Z,8.73
2018-05-16T02:45:14.104Z,10.10
2018-05-16T02:47:42.119Z,9.43
2018-05-16T02:50:09.918Z,9.30
2018-05-16T02:52:37.815Z,10.10
2018-05-16T02:55:05.754Z,8.90
2018-05-16T02:57:33.654Z,9.50
2018-05-16T03:00:01.551Z,9.27
2018-05-16T03:02:29.442Z,9.00
2018-05-16T03:04:57.333Z,8.47
2018-05-16T03:07:25.214Z,9.90
2018-05-16T03:09:53.126Z,9.93
2018-05-16T03:12:21.023Z,9.70
2018-05-16T03:14:48.926Z,8.93
2018-05-16T03:17:16.813Z,9.03
2018-05-16T03:19:44.749Z,9.37
2018-05-16T03:22:12.658Z,8.90
2018-05-16T03:24:40.546Z,9.23
2018-05-16T03:27:08.454Z,8.97
2018-05-16T03:29:36.354Z,9.10
2018-05-16T03:32:04.250Z,9.33
2018-05-16T03:34:32.142Z,9.17
2018-05-16T03:37:00.030Z,9.60
2018-05-16T03:39:28.186Z,9.50
2018-05-16T03:41:56.093Z,9.40
2018-05-16T03:44:23.974Z,9.47
2018-05-16T03:46:51.866Z,9.13
2018-05-16T03:49:19.758Z,8.70
2018-05-16T03:51:47.661Z,9.57
2018-05-16T03:54:15.546Z,8.83
2018-05-16T03:56:43.433Z,8.90
2018-05-16T03:59:17.505Z,8.70
2018-05-16T04:01:51.610Z,9.63
2018-05-16T04:04:19.500Z,9.40
2018-05-16T04:06:47.386Z,9.80
2018-05-16T04:09:15.333Z,9.17
2018-05-16T04:11:43.275Z,10.00
2018-05-16T04:14:11.185Z,9.40
2018-05-16T04:16:39.080Z,9.30
2018-05-16T04:19:07.014Z,9.30
2018-05-16T04:21:34.915Z,9.00
2018-05-16T04:24:02.805Z,8.77
2018-05-16T04:26:30.705Z,8.77
2018-05-16T04:28:58.630Z,8.33
2018-05-16T04:31:26.535Z,8.70
2018-05-16T04:33:54.449Z,9.33
2018-05-16T04:36:22.342Z,10.17
2018-05-16T04:38:50.262Z,9.33
2018-05-16T04:41:18.394Z,9.00
2018-05-16T04:43:46.288Z,9.50
2018-05-16T04:46:14.247Z,10.57
2018-05-16T04:48:42.142Z,9.40
2018-05-16T04:51:10.034Z,9.70
2018-05-16T04:53:37.929Z,11.17
2018-05-16T04:56:05.814Z,9.87
2018-05-16T04:58:33.730Z,11.03
2018-05-16T05:01:01.749Z,11.03
2018-05-16T05:03:29.626Z,10.13
2018-05-16T05:05:57.517Z,11.63
2018-05-16T05:08:25.409Z,10.50
2018-05-16T05:10:53.294Z,10.00
2018-05-16T05:13:21.182Z,10.70
2018-05-16T05:15:49.066Z,9.30
2018-05-16T05:18:17.056Z,12.03
2018-05-16T05:20:44.976Z,10.77
2018-05-16T05:23:13.080Z,10.47
2018-05-16T05:25:41.225Z,10.30
2018-05-16T05:28:09.122Z,9.47
2018-05-16T05:30:37.043Z,9.87
2018-05-16T05:33:05.106Z,12.63
2018-05-16T05:35:33.033Z,9.80
2018-05-16T05:38:00.994Z,9.97
2018-05-16T05:40:28.909Z,11.27
2018-05-16T05:42:57.041Z,11.90
2018-05-16T05:45:24.937Z,11.23
2018-05-16T05:47:52.861Z,10.10
2018-05-16T05:50:20.750Z,10.57
2018-05-16T05:52:48.637Z,10.63
2018-05-16T05:55:16.554Z,11.23
2018-05-16T05:57:44.441Z,10.20
2018-05-16T06:00:12.458Z,10.73
2018-05-16T06:02:40.285Z,10.57
2018-05-16T06:05:08.166Z,11.00
2018-05-16T06:07:36.078Z,11.80
2018-05-16T06:10:03.958Z,10.90
2018-05-16T06:12:31.874Z,10.00
2018-05-16T06:14:59.777Z,12.00
2018-05-16T06:17:27.697Z,11.67
2018-05-16T06:19:55.633Z,10.77
2018-05-16T06:22:23.486Z,12.07
2018-05-16T06:24:51.391Z,10.50
2018-05-16T06:27:19.462Z,10.97
2018-05-16T06:29:47.224Z,12.87
2018-05-16T06:32:15.114Z,10.03
2018-05-16T06:34:43.067Z,10.37
2018-05-16T06:37:10.953Z,10.13
2018-05-16T06:39:38.862Z,10.50
2018-05-16T06:42:06.762Z,8.23
2018-05-16T06:44:34.841Z,8.70
2018-05-16T06:47:02.733Z,8.83
2018-05-16T06:49:30.650Z,8.60
2018-05-16T06:51:58.571Z,8.47
2018-05-16T06:54:26.461Z,8.50
2018-05-16T06:56:54.361Z,9.00
2018-05-16T06:59:22.254Z,11.40
2018-05-16T07:01:50.195Z,11.13
2018-05-16T07:04:18.154Z,8.23
2018-05-16T07:06:46.049Z,8.07
2018-05-16T07:09:13.946Z,8.60
2018-05-16T07:11:41.838Z,8.60
2018-05-16T07:14:09.743Z,7.07
2018-05-16T07:16:37.637Z,7.50
2018-05-16T07:19:05.538Z,7.53
2018-05-16T07:21:33.423Z,6.97
2018-05-16T07:24:01.347Z,7.53
2018-05-16T07:26:29.279Z,7.13
2018-05-16T07:28:57.171Z,7.63
2018-05-16T07:31:25.125Z,7.50
2018-05-16T07:33:53.015Z,7.53
2018-05-16T07:36:20.918Z,7.43
2018-05-16T07:38:48.949Z,7.47
2018-05-16T07:41:16.840Z,7.57
2018-05-16T07:43:44.750Z,7.63
2018-05-16T07:46:12.907Z,7.17
2018-05-16T07:48:40.794Z,6.90
2018-05-16T07:51:08.745Z,6.50
2018-05-16T07:53:36.673Z,7.57
2018-05-16T07:56:04.698Z,6.87
2018-05-16T07:58:32.587Z,7.40
2018-05-16T08:01:00.502Z,7.00
2018-05-16T08:03:28.385Z,6.47
2018-05-16T08:05:56.285Z,7.03
2018-05-16T08:08:24.179Z,7.00
2018-05-16T08:10:52.083Z,6.40
2018-05-16T08:13:19.993Z,6.23
2018-05-16T08:15:47.891Z,9.33
2018-05-16T08:18:15.782Z,8.20
2018-05-16T08:20:43.739Z,7.10
2018-05-16T08:23:12.562Z,7.53
2018-05-16T08:25:40.490Z,6.00
2018-05-16T08:28:08.378Z,6.77
2018-05-16T08:30:36.309Z,6.13
2018-05-16T08:33:04.202Z,6.17
2018-05-16T08:35:32.106Z,6.37
2018-05-16T08:37:59.984Z,7.37
2018-05-16T08:40:27.886Z,7.63
2018-05-16T08:42:55.797Z,6.50
2018-05-16T08:45:23.677Z,7.00
2018-05-16T08:47:51.871Z,7.80
2018-05-16T08:50:19.761Z,7.60
2018-05-16T08:52:47.645Z,7.00
2018-05-16T08:55:15.558Z,7.83
2018-05-16T08:57:43.467Z,7.50
2018-05-16T09:00:11.399Z,7.90
2018-05-16T09:02:39.302Z,8.77
2018-05-16T09:05:07.197Z,9.10
2018-05-16T09:07:35.102Z,8.00
2018-05-16T09:10:03.006Z,8.10
2018-05-16T09:12:30.918Z,7.20
2018-05-16T09:14:58.810Z,8.50
2018-05-16T09:17:26.726Z,8.70
2018-05-16T09:19:54.738Z,8.37
2018-05-16T09:22:22.701Z,9.03
2018-05-16T09:24:50.598Z,7.97
2018-05-16T09:27:18.519Z,7.90
2018-05-16T09:29:46.466Z,10.00
2018-05-16T09:32:14.370Z,8.30
2018-05-16T09:34:42.269Z,7.17
2018-05-16T09:37:10.200Z,6.80
2018-05-16T09:39:38.115Z,5.90
2018-05-16T09:42:06.032Z,5.93
2018-05-16T09:44:33.924Z,6.07
2018-05-16T09:47:01.825Z,6.63
2018-05-16T09:49:29.870Z,6.40
2018-05-16T09:51:57.775Z,5.50
2018-05-16T09:54:25.670Z,5.50
2018-05-16T09:56:53.575Z,5.80
2018-05-16T09:59:21.469Z,6.67
2018-05-16T10:01:49.422Z,7.40
2018-05-16T10:04:17.318Z,7.13
2018-05-16T10:06:45.213Z,5.50
2018-05-16T10:09:13.101Z,5.50
2018-05-16T10:11:40.994Z,5.70
2018-05-16T10:14:08.985Z,5.20
2018-05-16T10:16:36.933Z,6.07
2018-05-16T10:19:04.831Z,9.87
2018-05-16T10:21:32.771Z,7.00
2018-05-16T10:24:00.661Z,6.00
2018-05-16T10:26:28.553Z,5.57
2018-05-16T10:28:56.445Z,5.60
2018-05-16T10:31:24.338Z,5.13
2018-05-16T10:33:52.234Z,7.03
2018-05-16T10:36:20.172Z,8.53
2018-05-16T10:38:48.085Z,5.37
2018-05-16T10:41:15.985Z,6.00
2018-05-16T10:43:43.903Z,5.10
2018-05-16T10:46:11.813Z,5.43
2018-05-16T10:48:39.746Z,6.07
2018-05-16T10:51:07.894Z,5.63
2018-05-16T10:53:35.802Z,5.80
2018-05-16T10:56:03.706Z,5.90
2018-05-16T10:58:31.642Z,5.57
2018-05-16T11:00:59.532Z,5.20
2018-05-16T11:03:27.552Z,5.80
2018-05-16T11:05:55.350Z,5.67
2018-05-16T11:08:23.271Z,8.07
2018-05-16T11:10:51.183Z,6.20
2018-05-16T11:13:19.069Z,5.40
2018-05-16T11:15:47.010Z,5.80
2018-05-16T11:18:14.947Z,6.00
2018-05-16T11:20:42.830Z,5.23
2018-05-16T11:23:10.729Z,6.60
2018-05-16T11:25:38.632Z,6.37
2018-05-16T11:28:06.522Z,4.90
2018-05-16T11:30:34.413Z,4.77
2018-05-16T11:33:02.322Z,5.00
2018-05-16T11:35:30.214Z,6.17
2018-05-16T11:37:58.411Z,7.33
2018-05-16T11:40:26.301Z,5.10
2018-05-16T11:42:54.190Z,4.93
2018-05-16T11:45:22.074Z,4.70
2018-05-16T11:47:49.984Z,5.87
2018-05-16T11:50:17.921Z,5.97
2018-05-16T11:52:45.998Z,18.67
2018-05-16T11:55:13.938Z,7.47
2018-05-16T11:57:41.892Z,6.77
2018-05-16T12:00:09.754Z,4.97
2018-05-16T12:02:37.634Z,4.43
2018-05-16T12:05:05.566Z,4.37
2018-05-16T12:07:33.516Z,4.73
2018-05-16T12:10:01.434Z,3.97
2018-05-16T12:12:29.334Z,4.40
2018-05-16T12:14:57.242Z,4.10
2018-05-16T12:17:25.169Z,4.00
2018-05-16T12:19:53.081Z,4.97
2018-05-16T12:22:21.034Z,4.53
2018-05-16T12:24:48.921Z,4.13
2018-05-16T12:27:16.859Z,5.10
2018-05-16T12:29:44.761Z,4.83
2018-05-16T12:32:12.692Z,4.73
2018-05-16T12:34:40.577Z,4.70
2018-05-16T12:37:08.481Z,4.87
2018-05-16T12:39:36.458Z,4.90
2018-05-16T12:42:04.378Z,5.33
2018-05-16T12:44:32.282Z,5.00
2018-05-16T12:47:00.185Z,4.63
2018-05-16T12:49:28.100Z,5.40
2018-05-16T12:51:56.030Z,4.73
2018-05-16T12:54:24.110Z,4.60
2018-05-16T12:56:52.001Z,5.17
2018-05-16T12:59:19.898Z,4.70
2018-05-16T13:01:47.787Z,4.93
2018-05-16T13:04:15.697Z,5.00
2018-05-16T13:06:43.599Z,5.10
2018-05-16T13:09:11.533Z,5.33
2018-05-16T13:11:39.441Z,5.50
2018-05-16T13:14:07.338Z,4.77
2018-05-16T13:16:35.261Z,4.97
2018-05-16T13:19:03.160Z,4.83
2018-05-16T13:21:31.140Z,4.70
2018-05-16T13:23:58.989Z,5.07
2018-05-16T13:26:26.925Z,4.73
2018-05-16T13:28:54.821Z,5.17
2018-05-16T13:31:22.714Z,5.00
2018-05-16T13:33:50.613Z,5.50
2018-05-16T13:36:18.557Z,11.27
2018-05-16T13:38:46.445Z,5.97
2018-05-16T13:41:14.337Z,5.77
2018-05-16T13:43:42.243Z,5.57
2018-05-16T13:46:10.166Z,4.83
2018-05-16T13:48:38.064Z,5.80
2018-05-16T13:51:06.012Z,5.07
2018-05-16T13:53:34.142Z,4.90
2018-05-16T13:56:02.074Z,5.40
2018-05-16T13:58:29.982Z,5.30
2018-05-16T14:00:57.865Z,11.47
2018-05-16T14:03:25.763Z,5.67
2018-05-16T14:05:53.669Z,5.33
2018-05-16T14:08:21.604Z,5.43
2018-05-16T14:10:49.498Z,5.33
2018-05-16T14:13:17.395Z,5.07
2018-05-16T14:15:45.310Z,5.23
2018-05-16T14:18:13.250Z,4.90
2018-05-16T14:20:41.169Z,4.77
2018-05-16T14:23:09.072Z,5.10
2018-05-16T14:25:37.004Z,4.53
2018-05-16T14:28:04.946Z,9.30
2018-05-16T14:30:32.853Z,5.87
2018-05-16T14:33:00.753Z,5.60
2018-05-16T14:35:28.650Z,4.77
2018-05-16T14:37:56.562Z,4.70
2018-05-16T14:40:24.478Z,4.47
2018-05-16T14:42:52.487Z,3.93
2018-05-16T14:45:20.278Z,4.40
2018-05-16T14:47:48.229Z,4.47
2018-05-16T14:50:16.142Z,5.37
2018-05-16T14:52:44.064Z,8.20
2018-05-16T14:55:12.070Z,6.27
2018-05-16T14:57:39.967Z,5.50
2018-05-16T15:00:07.854Z,5.17
2018-05-16T15:02:35.770Z,12.83
2018-05-16T15:05:03.665Z,5.67
2018-05-16T15:07:31.616Z,4.93
2018-05-16T15:09:59.462Z,4.13
2018-05-16T15:12:27.395Z,4.87
2018-05-16T15:14:55.324Z,4.40
2018-05-16T15:17:23.217Z,4.93
2018-05-16T15:19:51.110Z,4.67
2018-05-16T15:22:18.998Z,5.33
2018-05-16T15:24:46.910Z,5.57
2018-05-16T15:27:14.832Z,4.67
2018-05-16T15:29:42.722Z,5.10
2018-05-16T15:32:10.634Z,4.80
2018-05-16T15:34:38.605Z,5.00
2018-05-16T15:37:06.516Z,5.40
2018-05-16T15:39:34.414Z,5.97
2018-05-16T15:42:02.323Z,5.13
2018-05-16T15:44:30.214Z,4.87
2018-05-16T15:46:58.124Z,5.50
2018-05-16T15:49:26.015Z,5.23
2018-05-16T15:51:53.960Z,7.60
2018-05-16T15:54:21.853Z,7.20
2018-05-16T15:56:49.770Z,5.73
2018-05-16T15:59:17.890Z,4.90
2018-05-16T16:01:45.793Z,5.30
2018-05-16T16:04:13.694Z,4.50
2018-05-16T16:06:41.601Z,4.70
2018-05-16T16:09:09.494Z,4.20
2018-05-16T16:11:37.418Z,5.20
2018-05-16T16:14:05.313Z,5.30
2018-05-16T16:16:33.201Z,5.20
2018-05-16T16:19:01.122Z,4.97
2018-05-16T16:21:29.059Z,6.00
2018-05-16T16:23:57.022Z,5.50
2018-05-16T16:26:24.937Z,5.40
2018-05-16T16:28:52.862Z,5.00
2018-05-16T16:31:20.824Z,5.13
2018-05-16T16:33:48.690Z,5.37
2018-05-16T16:36:16.580Z,8.17
2018-05-16T16:38:44.473Z,5.77
2018-05-16T16:41:12.435Z,5.37
2018-05-16T16:43:40.434Z,5.40
2018-05-16T16:46:08.399Z,4.93
2018-05-16T16:48:36.306Z,5.37
2018-05-16T16:51:04.195Z,5.17
2018-05-16T16:53:32.094Z,5.43
2018-05-16T16:55:59.991Z,6.00
2018-05-16T16:58:27.984Z,5.77
2018-05-16T17:00:56.054Z,5.30
2018-05-16T17:03:23.985Z,5.77
2018-05-16T17:05:51.893Z,5.90
2018-05-16T17:08:19.785Z,5.07
2018-05-16T17:10:47.757Z,4.97
2018-05-16T17:13:15.669Z,5.30
2018-05-16T17:15:43.558Z,5.20
2018-05-16T17:18:11.442Z,4.67
2018-05-16T17:20:39.339Z,4.60
2018-05-16T17:23:07.226Z,5.27
2018-05-16T17:25:35.118Z,5.17
2018-05-16T17:28:03.005Z,8.70
2018-05-16T17:30:30.906Z,6.60
2018-05-16T17:32:58.814Z,5.50
2018-05-16T17:35:26.722Z,4.40
2018-05-16T17:37:54.630Z,4.23
2018-05-16T17:40:22.541Z,5.87
2018-05-16T17:42:50.448Z,4.77
2018-05-16T17:45:18.346Z,5.53
2018-05-16T17:47:46.241Z,4.60
2018-05-16T17:50:14.149Z,5.03
2018-05-16T17:52:42.064Z,5.00
2018-05-16T17:55:09.958Z,5.53
2018-05-16T17:57:37.878Z,6.10
2018-05-16T18:00:05.771Z,6.33
2018-05-16T18:02:33.833Z,5.60
2018-05-16T18:05:01.725Z,5.53
2018-05-16T18:07:29.621Z,5.53
2018-05-16T18:09:57.518Z,6.70
2018-05-16T18:12:25.405Z,6.90
2018-05-16T18:14:59.337Z,7.47
2018-05-16T18:17:27.244Z,7.10
2018-05-16T18:19:55.165Z,6.33
2018-05-16T18:22:23.134Z,7.07
2018-05-16T18:24:51.019Z,6.87
2018-05-16T18:27:18.914Z,6.83
2018-05-16T18:29:46.813Z,7.37
2018-05-16T18:32:14.713Z,6.80
2018-05-16T18:34:42.605Z,6.67
2018-05-16T18:37:10.510Z,6.60
2018-05-16T18:39:38.417Z,7.50
2018-05-16T18:42:06.304Z,6.93
2018-05-16T18:44:34.198Z,8.00
2018-05-16T18:47:02.090Z,6.90
2018-05-16T18:49:29.973Z,7.60
2018-05-16T18:51:57.898Z,7.93
2018-05-16T18:54:25.782Z,6.30
2018-05-16T18:56:53.693Z,7.53
2018-05-16T18:59:21.584Z,6.70
2018-05-16T19:01:49.498Z,8.10
2018-05-16T19:04:17.397Z,7.03
2018-05-16T19:06:46.814Z,6.70
2018-05-16T19:09:15.106Z,6.63
2018-05-16T19:11:43.013Z,5.73
2018-05-16T19:14:10.910Z,5.43
2018-05-16T19:16:38.868Z,5.77
2018-05-16T19:19:06.677Z,5.80
2018-05-16T19:21:34.561Z,5.47
2018-05-16T19:24:02.470Z,5.17
2018-05-16T19:26:30.385Z,6.07
2018-05-16T19:28:58.273Z,6.30
2018-05-16T19:31:26.153Z,5.90
2018-05-16T19:33:54.045Z,5.57
2018-05-16T19:36:21.950Z,6.70
2018-05-16T19:38:49.850Z,5.00
2018-05-16T19:41:17.755Z,5.33
2018-05-16T19:43:45.662Z,5.97
2018-05-16T19:46:13.555Z,6.53
2018-05-16T19:48:41.454Z,6.30
2018-05-16T19:51:09.350Z,5.87
2018-05-16T19:53:37.261Z,5.00
2018-05-16T19:56:05.182Z,5.30
2018-05-16T19:58:33.188Z,5.10
2018-05-16T20:01:01.082Z,5.13
2018-05-16T20:03:28.987Z,6.80
2018-05-16T20:05:57.050Z,5.60
2018-05-16T20:08:24.950Z,5.60
2018-05-16T20:10:52.881Z,5.90
2018-05-16T20:13:20.769Z,5.90
2018-05-16T20:15:48.703Z,6.40
2018-05-16T20:18:16.601Z,4.93
2018-05-16T20:20:45.453Z,4.77
2018-05-16T20:23:13.349Z,5.90
2018-05-16T20:25:41.233Z,4.93
2018-05-16T20:28:09.125Z,5.60
2018-05-16T20:30:37.046Z,4.73
2018-05-16T20:33:05.011Z,4.50
2018-05-16T20:35:32.845Z,6.80
2018-05-16T20:38:00.738Z,4.90
2018-05-16T20:40:28.625Z,5.00
2018-05-16T20:42:56.513Z,4.87
2018-05-16T20:45:24.505Z,6.57
2018-05-16T20:47:52.310Z,5.50
2018-05-16T20:50:20.215Z,4.70
2018-05-16T20:52:48.113Z,3.93
2018-05-16T20:55:16.002Z,5.07
2018-05-16T20:57:43.890Z,5.40
2018-05-16T21:00:11.809Z,5.73
2018-05-16T21:02:39.717Z,5.40
2018-05-16T21:05:07.617Z,5.00
2018-05-16T21:07:35.687Z,4.47
2018-05-16T21:10:03.582Z,4.50
2018-05-16T21:12:31.470Z,4.70
2018-05-16T21:14:59.361Z,5.30
2018-05-16T21:17:27.297Z,5.70
2018-05-16T21:19:55.181Z,4.90
2018-05-16T21:22:23.125Z,5.10
2018-05-16T21:24:51.012Z,5.10
2018-05-16T21:27:18.901Z,5.20
2018-05-16T21:29:46.782Z,5.07
2018-05-16T21:32:14.715Z,4.93
2018-05-16T21:34:42.639Z,5.20
2018-05-16T21:37:10.541Z,4.80
2018-05-16T21:39:38.451Z,5.00
2018-05-16T21:42:06.339Z,5.13
2018-05-16T21:44:34.230Z,5.50
2018-05-16T21:47:02.114Z,3.97
2018-05-16T21:49:30.006Z,4.93
2018-05-16T21:51:57.882Z,5.13
2018-05-16T21:54:25.780Z,5.30
2018-05-16T21:56:53.671Z,5.00
2018-05-16T21:59:21.566Z,4.73
2018-05-16T22:01:49.469Z,4.60
2018-05-16T22:04:17.377Z,5.90
2018-05-16T22:06:45.283Z,4.83
2018-05-16T22:09:13.398Z,4.53
2018-05-16T22:11:41.285Z,5.20
2018-05-16T22:14:09.202Z,4.63
2018-05-16T22:16:37.134Z,4.50
2018-05-16T22:19:05.028Z,4.80
2018-05-16T22:21:32.917Z,5.30
2018-05-16T22:24:00.815Z,5.00
2018-05-16T22:26:28.745Z,5.60
2018-05-16T22:28:56.645Z,6.80
2018-05-16T22:31:30.646Z,4.77
2018-05-16T22:34:04.657Z,5.00
2018-05-16T22:36:38.749Z,4.63
2018-05-16T22:39:12.913Z,6.93
2018-05-16T22:41:46.986Z,4.50
2018-05-16T22:44:23.922Z,4.47
2018-05-16T22:46:51.806Z,4.73
2018-05-16T22:49:19.709Z,5.60
2018-05-16T22:51:47.618Z,5.80
2018-05-16T22:54:15.519Z,6.23
2018-05-16T22:56:43.416Z,5.17
2018-05-16T22:59:11.306Z,5.40
2018-05-16T23:01:39.201Z,4.63
2018-05-16T23:04:07.093Z,4.00
2018-05-16T23:06:35.002Z,4.83
2018-05-16T23:09:02.924Z,4.50
2018-05-16T23:11:31.054Z,5.80
2018-05-16T23:13:58.946Z,4.60
2018-05-16T23:16:26.821Z,4.83
2018-05-16T23:18:54.718Z,5.57
2018-05-16T23:21:22.649Z,5.57
2018-05-16T23:23:50.554Z,4.73
2018-05-16T23:26:18.450Z,4.73
2018-05-16T23:28:46.353Z,6.20
2018-05-16T23:31:14.246Z,5.00
2018-05-16T23:33:42.165Z,6.30
2018-05-16T23:36:10.062Z,4.63
2018-05-16T23:38:37.961Z,5.60
2018-05-16T23:41:05.878Z,5.03
2018-05-16T23:43:34.799Z,5.50
2018-05-16T23:46:02.705Z,5.40
2018-05-16T23:48:30.595Z,5.10
2018-05-16T23:50:58.494Z,5.73
2018-05-16T23:53:26.394Z,4.67
2018-05-16T23:55:54.309Z,6.17
2018-05-16T23:58:22.205Z,5.50
